Tiempo atmosférico en la estación meteorológica de Capella, Huesca (600 m.)



Fecha
DESCASC
Temp. máxima en grados centígrados (hora)
DESCASC
Temp. mínima en grados centígrados (hora)
DESCASC
Temp. media en grados centígrados
DESCASC
Racha de viento máxima en m/sg (hora)
DESCASC
Velocidad máxima media en intervalos de 10 minutos(hora)
DESCASC
Precipitaciones diarias en mm
DESCASC
Precipitaciones de 00:00 a 06:00 en mm
DESCASC
Precipitaciones de 06:00 a 12:00 en mm
DESCASC
Precipitaciones de 12:00 a 18:00 en mm
DESCASC
Precipitaciones de 18:00 a 24:00 en mm
DESCASC
20-05-2018 20.4 (13:40) 9.5 (04:30) 14.9 8.61 (17:40) 4.44 (14:50) 3.4 0 0 2.6 0.8
19-05-2018 21.2 (13:40) 9.4 (04:50) 15.3 7.78 (16:00) 4.44 (16:10) 2.2 0 0 0.6 1.6
18-05-2018 21.5 (17:10) 9 (00:00) 15.3 6.11 (11:40) 3.33 (13:20) 19.8 0 0 11.6 8.2
17-05-2018 22.8 (17:00) 11 (00:00) 16.9 8.06 (17:50) 5 (15:10) 4.6 0 0 0 4.6
16-05-2018 22.2 (16:10) 7.7 (00:00) 15 8.06 (16:20) 5.56 (14:00) 0 0 0 0 0
15-05-2018 21.3 (16:20) 3.6 (00:00) 12.4 6.11 (21:40) 3.89 (12:50) 0 0 0 0 0
14-05-2018 17.5 (17:10) 2.2 (00:00) 9.9 8.61 (16:30) 4.17 (16:30) 0 0 0 0 0
13-05-2018 16.6 (15:40) 4.9 (00:00) 10.8 14.72 (17:50) 8.06 (17:50) 0 0 0 0 0
12-05-2018 21.2 (15:00) 10 (00:00) 15.6 10.28 (16:00) 6.39 (16:00) 12.2 0 0.2 0.4 11.6
11-05-2018 22.4 (17:10) 7.2 (07:00) 14.8 7.78 (15:20) 4.44 (16:40) 0 0 0 0 0
10-05-2018 20.3 (17:10) 10.8 (00:00) 15.5 9.17 (19:10) 5.56 (19:10) 0 0 0 0 0
09-05-2018 21.6 (17:10) 8.4 (00:00) 15 8.33 (12:30) 5.83 (12:00) 0.6 0 0 0 0.6
08-05-2018 22 (19:20) 10.4 (00:00) 16.2 6.94 (05:50) 3.61 (05:50) 5.4 3.6 0 1.8 0
07-05-2018 22.5 (15:30) 12.1 (00:00) 17.3 9.44 (16:00) 4.72 (16:00) 8.6 0 0 4.4 4.2
06-05-2018 21.5 (19:20) 7.3 (00:00) 14.4 7.22 (13:40) 5 (13:50) 0.6 0 0 0.6 0
05-05-2018 19.4 (13:10) 5.9 (00:00) 12.6 8.06 (14:30) 4.72 (13:50) 0.8 0 0 0.8 0
04-05-2018 20.5 (16:00) 3 (00:00) 11.8 7.5 (14:30) 4.72 (15:00) 0 0 0 0 0
03-05-2018 18.4 (15:10) 4.5 (00:00) 11.4 9.17 (18:20) 5 (18:40) 0 0 0 0 0
02-05-2018 17.7 (16:10) -0.2 (00:00) 8.8 11.11 (17:10) 6.67 (16:40) 0 0 0 0 0
01-05-2018 13.7 (13:00) 0.6 (06:00) 7.1 8.33 (13:20) 5 (13:10) 10 0 0 10 0
30-04-2018 13.5 (17:40) 2.3 (00:00) 7.9 8.06 (14:50) 4.72 (18:20) 0 0 0 0 0
29-04-2018 15.4 (00:00) 6.4 (00:00) 10.9 13.89 (13:40) 9.17 (13:40) 37 29 4 4 0
28-04-2018 20.7 (17:40) 13.1 (00:00) 16.9 14.44 (22:00) 6.11 (18:00) 0 0 0 0 0
27-04-2018 23.6 (17:30) 7.9 (00:00) 15.8 8.61 (17:20) 5.28 (13:10) 1.4 0 0 0 1.4
26-04-2018 21.6 (18:10) 9.2 (00:00) 15.4 8.89 (14:40) 6.39 (14:40) 0 0 0 0 0
25-04-2018 25.9 (14:50) 9 (00:00) 17.4 9.44 (16:00) 5.83 (16:10) 0 0 0 0 0
24-04-2018 24.6 (15:50) 6.8 (00:00) 15.7 6.67 (17:10) 4.17 (17:10) 0 0 0 0 0
23-04-2018 16.7 (15:00) 9.5 (00:00) 13.1 5.56 (16:30) 3.89 (19:30) 0.4 0 0 0.4 0
22-04-2018 23.1 (15:20) 9.1 (00:00) 16.1 7.78 (16:00) 5.56 (16:00) 0 0 0 0 0

Gráficas

Temp. máximas Temp. mínimas Temp. medias Precipitaciones Rachas de viento máximas Velocidades máximas media en intervalos de 10 minutos

Datos horarios

Fecha y hora oficial Temperatura (ºC) Velocidad del viento (km/h) Dirección del viento Racha (km/h) Dirección de racha Precipitación (mm) Presión (hPa) Tendencia (hPa) Humedad (%)
2018-05-21 23:00:00 13 4 Este 15 Sudoeste 0.8 -- -- 93
2018-05-21 22:00:00 13.6 10 Sudoeste 18 Sudoeste 0 -- -- 89
2018-05-21 21:00:00 13.6 2 Sudeste 18 Este 2.8 -- -- 92
2018-05-21 20:00:00 14.6 10 Nordeste 24 Este 0.4 -- -- 80
2018-05-21 19:00:00 16.8 16 Este 30 Este 0 -- -- 69
2018-05-21 18:00:00 20.5 12 Nordeste 21 Este 0 -- -- 55
2018-05-21 17:00:00 21.7 4 Noroeste 15 Sudoeste 0 -- -- 49
2018-05-21 16:00:00 21.2 4 Sur 17 Sur 0 -- -- 50
2018-05-21 15:00:00 20 11 Oeste 20 Sur 0 -- -- 55
2018-05-21 14:00:00 18 15 Sur 24 Sur 0 -- -- 66
2018-05-21 13:00:00 20 5 Sur 12 Sur 0 -- -- 52
2018-05-21 12:00:00 18.3 4 Sudoeste 10 Noroeste 0 -- -- 64
2018-05-21 11:00:00 16.2 2 Norte 8 Oeste 0 -- -- 77
2018-05-21 10:00:00 15.4 2 Noroeste 8 Nordeste 0 -- -- 72
2018-05-21 09:00:00 13.3 4 Nordeste 8 Nordeste 0 -- -- 89
2018-05-21 08:00:00 11 4 Este 9 Nordeste 0 -- -- 96
2018-05-21 07:00:00 10.8 0 Calma 5 Sudeste 0 -- -- 95
2018-05-21 06:00:00 10.9 0 Calma 7 Este 0 -- -- 96
2018-05-21 05:00:00 11.3 3 Este 6 Este 0 -- -- 95
2018-05-21 04:00:00 11.3 3 Este 6 Este 0 -- -- 95
2018-05-21 03:00:00 11.3 0 Calma 6 Nordeste 0 -- -- 95
2018-05-21 02:00:00 11.7 3 Este 6 Este 0 -- -- 94
2018-05-21 01:00:00 11.9 3 Este 7 Este 0 -- -- 94
2018-05-21 00:00:00 11.9 4 Nordeste 8 Nordeste 0 -- -- 93
2018-05-20 23:00:00 12.1 4 Nordeste 9 Nordeste 0 -- -- 92
2018-05-20 22:00:00 12.6 5 Nordeste 9 Nordeste 0 -- -- 90
2018-05-20 21:00:00 13.3 3 Este 26 Nordeste 0 -- -- 89
2018-05-20 20:00:00 13.8 9 Este 17 Nordeste 0.2 -- -- 85
2018-05-20 19:00:00 15.3 7 Este 23 Este 0.6 -- -- 78
2018-05-20 18:00:00 16.1 7 Sudeste 31 Sudeste 0 -- -- 70
2018-05-20 17:00:00 19.3 4 Noroeste 12 Sudoeste 0 -- -- 60
2018-05-20 16:00:00 15.9 9 Oeste 17 Sur 0 -- -- 83
2018-05-20 15:00:00 15.1 12 Sudoeste 23 Sur 2.6 -- -- 78
2018-05-20 14:00:00 19.5 7 Nordeste 22 Nordeste 0 -- -- 62
2018-05-20 13:00:00 19.2 10 Este 19 Este 0 -- -- 61
2018-05-20 12:00:00 17.6 6 Sudoeste 13 Sudoeste 0 -- -- 76
2018-05-20 11:00:00 16 5 Oeste 9 Oeste 0 -- -- 79
2018-05-20 10:00:00 14.6 5 Oeste 8 Oeste 0 -- -- 85
2018-05-20 09:00:00 12.5 3 Noroeste 6 Nordeste 0 -- -- 94
2018-05-20 08:00:00 11 2 Este 6 Sudeste 0 -- -- 95
2018-05-20 07:00:00 10.6 2 Este 6 Sudeste 0 -- -- 96
2018-05-20 06:00:00 10.4 2 Norte 8 Este 0 -- -- 95
2018-05-20 05:00:00 10 4 Sudeste 6 Sudeste 0 -- -- 97
2018-05-20 04:00:00 10.3 3 Este 9 Este 0 -- -- 95
2018-05-20 03:00:00 11.1 3 Este 6 Sur 0 -- -- 96
2018-05-20 02:00:00 11.8 3 Nordeste 8 Este 0 -- -- 93
2018-05-20 01:00:00 11.9 3 Sudoeste 7 Sudeste 0 -- -- 95
2018-05-20 00:00:00 12.1 4 Nordeste 6 Nordeste 0 -- -- 94
2018-05-19 23:00:00 12.7 0 Calma 13 Sudeste 0 -- -- 91
2018-05-19 22:00:00 12.9 8 Norte 12 Noroeste 0.2 -- -- 93
2018-05-19 21:00:00 13.2 3 Nordeste 11 Nordeste 0 -- -- 94
2018-05-19 20:00:00 13.4 10 Nordeste 17 Nordeste 1.4 -- -- 90
2018-05-19 19:00:00 14.7 3 Nordeste 18 Sudoeste 0 -- -- 87
2018-05-19 18:00:00 15.5 8 Sudoeste 16 Norte 0.2 -- -- 84
2018-05-19 17:00:00 16.1 4 Este 28 Sudeste 0.2 -- -- 75
2018-05-19 16:00:00 16.7 15 Sudeste 28 Sudeste 0.2 -- -- 70
2018-05-19 15:00:00 19.4 13 Sur 21 Sudoeste 0 -- -- 63
2018-05-19 14:00:00 20.7 10 Sudoeste 21 Oeste 0 -- -- 52
2018-05-19 13:00:00 20.6 13 Oeste 23 Oeste 0 -- -- 61
2018-05-19 12:00:00 19.2 8 Oeste 15 Oeste 0 -- -- 62
2018-05-19 11:00:00 17.6 4 Norte 8 Noroeste 0 -- -- 71
2018-05-19 10:00:00 15 3 Noroeste 9 Oeste 0 -- -- 78
2018-05-19 09:00:00 13.1 2 Noroeste 5 Oeste 0 -- -- 90
2018-05-19 08:00:00 11 0 Calma 6 Este 0 -- -- 96
2018-05-19 07:00:00 9.5 3 Sudeste 6 Nordeste 0 -- -- 97
2018-05-19 06:00:00 10 4 Este 10 Nordeste 0 -- -- 97
2018-05-19 05:00:00 9.5 7 Nordeste 10 Nordeste 0 -- -- 97
2018-05-19 04:00:00 10.3 3 Este 7 Nordeste 0 -- -- 96
2018-05-19 03:00:00 11 3 Sudeste 6 Sudeste 0 -- -- 97
2018-05-19 02:00:00 11.1 3 Sudeste 9 Este 0 -- -- 97
2018-05-19 01:00:00 11 4 Este 11 Sudeste 0 -- -- 98
2018-05-19 00:00:00 10.9 4 Nordeste 10 Sudeste 0 -- -- 96
2018-05-18 23:00:00 11.2 5 Sudoeste 12 Sur 0 -- -- 97
2018-05-18 22:00:00 11.6 5 Nordeste 7 Nordeste 0 -- -- 94
2018-05-18 21:00:00 12.6 4 Este 8 Este 0.2 -- -- 95
2018-05-18 20:00:00 12.8 4 Sudeste 13 Este 2 -- -- 91
2018-05-18 19:00:00 12.9 8 Este 16 Norte 6 -- -- 91
2018-05-18 18:00:00 16.8 6 Este 19 Sudoeste 11.6 -- -- 78
2018-05-18 17:00:00 21 9 Sudoeste 19 Sudoeste -- -- -- 55
2018-05-18 16:00:00 20.6 8 Sur 16 Sudoeste 0 -- -- 59
2018-05-18 15:00:00 19.8 4 Sur 13 Sudoeste 0 -- -- 56
2018-05-18 14:00:00 19.9 6 Sur 20 Sur 0 -- -- 55
2018-05-18 13:00:00 18.5 9 Sur 16 Sur 0 -- -- 63
2018-05-18 12:00:00 17.7 9 Sur 22 Sudoeste 0 -- -- 63
2018-05-18 11:00:00 16.2 6 Oeste 10 Oeste 0 -- -- 78
2018-05-18 10:00:00 13.5 0 Calma 4 Oeste 0 -- -- 90
2018-05-18 09:00:00 12.6 3 Nordeste 6 Este 0 -- -- 88
2018-05-18 08:00:00 10.3 3 Sudeste 6 Sudeste 0 -- -- 95
2018-05-18 07:00:00 9.1 2 Sudeste 9 Este 0 -- -- 96
2018-05-18 06:00:00 9.4 3 Nordeste 11 Este 0 -- -- 95
2018-05-18 05:00:00 10.3 3 Este 5 Sudeste 0 -- -- 97
2018-05-18 04:00:00 10.5 0 Calma 9 Nordeste 0 -- -- 97
2018-05-18 03:00:00 10.1 6 Este 9 Nordeste 0 -- -- 96
2018-05-18 02:00:00 10.8 4 Nordeste 6 Sudeste 0 -- -- 95
2018-05-18 01:00:00 11.5 3 Nordeste 9 Nordeste 0 -- -- 94
2018-05-18 00:00:00 11.6 9 Nordeste 12 Nordeste 0 -- -- 95
2018-05-17 23:00:00 12.5 6 Nordeste 12 Este 0 -- -- 92
2018-05-17 22:00:00 13.2 2 Nordeste 10 Este 0 -- -- 92
2018-05-17 21:00:00 13.3 5 Este 10 Este 0 -- -- 92
2018-05-17 20:00:00 13.4 4 Este 25 Este 0.2 -- -- 90
2018-05-17 19:00:00 13.9 11 Nordeste 24 Este 4.4 -- -- 85
2018-05-17 18:00:00 16.2 10 Norte 29 Norte 0 -- -- 68
2018-05-17 17:00:00 22.8 10 Sudoeste 29 Oeste 0 -- -- 47
2018-05-17 16:00:00 22.5 17 Oeste 28 Oeste 0 -- -- 49
2018-05-17 15:00:00 22 17 Oeste 28 Oeste 0 -- -- 51
2018-05-17 14:00:00 21.2 11 Oeste 19 Oeste 0 -- -- 52
2018-05-17 13:00:00 20.7 9 Sur 19 Sudoeste 0 -- -- 48
2018-05-17 12:00:00 19.8 6 Oeste 14 Noroeste 0 -- -- 50
2018-05-17 11:00:00 18 8 Nordeste 11 Nordeste 0 -- -- 59
2018-05-17 10:00:00 15.4 2 Oeste 6 Oeste 0 -- -- 69
2018-05-17 09:00:00 13.3 3 Sur 5 Sur 0 -- -- 71
2018-05-17 08:00:00 11.8 3 Nordeste 11 Este 0 -- -- 78
2018-05-17 07:00:00 11.1 4 Este 11 Nordeste 0 -- -- 79
2018-05-17 06:00:00 11.2 4 Nordeste 14 Nordeste 0 -- -- 80
2018-05-17 05:00:00 11.5 6 Este 13 Nordeste 0 -- -- 78
2018-05-17 04:00:00 11.7 5 Este 11 Nordeste 0 -- -- 78
2018-05-17 03:00:00 12.3 7 Nordeste 15 Nordeste 0 -- -- 78
2018-05-17 02:00:00 13.2 10 Este 17 Nordeste 0 -- -- 75
2018-05-17 01:00:00 13.8 8 Nordeste 12 Nordeste 0 -- -- 80
2018-05-17 00:00:00 14.6 5 Nordeste 10 Este 0 -- -- 80
2018-05-16 23:00:00 15.5 5 Nordeste 17 Nordeste 0 -- -- 76
2018-05-16 22:00:00 16.8 8 Nordeste 21 Norte 0 -- -- 70
2018-05-16 21:00:00 19.4 2 Oeste 15 Sudoeste 0 -- -- 53
2018-05-16 20:00:00 21 10 Sur 15 Sur 0 -- -- 46
2018-05-16 19:00:00 21.5 6 Sudoeste 19 Sudoeste 0 -- -- 45
2018-05-16 18:00:00 20.7 10 Sudoeste 22 Oeste 0 -- -- 48
2018-05-16 17:00:00 21.1 13 Sudoeste 29 Oeste 0 -- -- 46
2018-05-16 16:00:00 21.9 14 Sudoeste 28 Sudoeste 0 -- -- 47
2018-05-16 15:00:00 21.4 15 Sudoeste 29 Oeste 0 -- -- 51
2018-05-16 14:00:00 20 20 Oeste 27 Oeste 0 -- -- 52
2018-05-16 13:00:00 19.4 18 Oeste 27 Oeste 0 -- -- 58
2018-05-16 12:00:00 19.2 15 Oeste 23 Oeste 0 -- -- 55
2018-05-16 11:00:00 16.9 8 Sudoeste 13 Sudoeste 0 -- -- 62
2018-05-16 10:00:00 14.4 7 Sudoeste 10 Oeste 0 -- -- 67
2018-05-16 09:00:00 12.1 5 Oeste 6 Oeste 0 -- -- 77
2018-05-16 08:00:00 9.9 3 Este 9 Este 0 -- -- 80
2018-05-16 07:00:00 7.7 5 Este 9 Nordeste 0 -- -- 89
2018-05-16 06:00:00 8.4 4 Sudeste 11 Nordeste 0 -- -- 85
2018-05-16 05:00:00 8.6 5 Nordeste 10 Nordeste 0 -- -- 85
2018-05-16 04:00:00 9.4 2 Nordeste 11 Nordeste 0 -- -- 82
2018-05-16 03:00:00 10.6 6 Este 10 Este 0 -- -- 77
2018-05-16 02:00:00 10.8 6 Nordeste 10 Sudeste 0 -- -- 76
2018-05-16 01:00:00 11.3 5 Sudeste 15 Este 0 -- -- 74
2018-05-16 00:00:00 12.5 8 Este 21 Este 0 -- -- 67
2018-05-15 23:00:00 14.7 8 Este 15 Sudeste 0 -- -- 57
2018-05-15 22:00:00 16.3 8 Nordeste 22 Este 0 -- -- 52
2018-05-15 21:00:00 17.8 6 Nordeste 18 Nordeste 0 -- -- 49
2018-05-15 20:00:00 19.4 5 Norte 17 Norte 0 -- -- 49
2018-05-15 19:00:00 20.9 6 Norte 15 Norte 0 -- -- 43
2018-05-15 18:00:00 20.3 4 Nordeste 9 Nordeste 0 -- -- 49
2018-05-15 17:00:00 20.7 3 Sudoeste 16 Oeste 0 -- -- 45
2018-05-15 16:00:00 20.6 4 Oeste 15 Oeste 0 -- -- 44
2018-05-15 15:00:00 19 7 Oeste 20 Oeste 0 -- -- 48
2018-05-15 14:00:00 18.8 11 Sudoeste 20 Oeste 0 -- -- 48
2018-05-15 13:00:00 17.8 9 Oeste 22 Oeste 0 -- -- 47
2018-05-15 12:00:00 16.7 12 Oeste 21 Oeste 0 -- -- 49
2018-05-15 11:00:00 14.2 10 Oeste 15 Oeste 0 -- -- 60
2018-05-15 10:00:00 11.5 6 Sudoeste 12 Sudoeste 0 -- -- 61
2018-05-15 09:00:00 8.5 5 Oeste 8 Oeste 0 -- -- 80
2018-05-15 08:00:00 5.7 0 Calma 8 Este 0 -- -- 87
2018-05-15 07:00:00 4 5 Este 11 Nordeste 0 -- -- 92
2018-05-15 06:00:00 5 6 Sudeste 10 Sur 0 -- -- 87
2018-05-15 05:00:00 4.5 4 Nordeste 8 Sudeste 0 -- -- 89
2018-05-15 04:00:00 5.2 3 Sudeste 7 Nordeste 0 -- -- 86
2018-05-15 03:00:00 5.7 2 Nordeste 8 Este 0 -- -- 84
2018-05-15 02:00:00 6.3 3 Sudeste 8 Este 0 -- -- 82
2018-05-15 01:00:00 8.2 3 Nordeste 14 Nordeste 0 -- -- 72
2018-05-15 00:00:00 8.3 6 Nordeste 10 Nordeste 0 -- -- 72
2018-05-14 23:00:00 10.7 3 Sudeste 12 Oeste 0 -- -- 62
2018-05-14 22:00:00 12.5 6 Este 13 Este 0 -- -- 46
2018-05-14 21:00:00 13.7 6 Este 21 Este 0 -- -- 44
2018-05-14 20:00:00 15.3 10 Este 19 Nordeste 0 -- -- 43
2018-05-14 19:00:00 17.1 3 Nordeste 10 Sur 0 -- -- 40
2018-05-14 18:00:00 17.3 6 Sur 22 Sudoeste 0 -- -- 38
2018-05-14 17:00:00 17.3 13 Sudoeste 31 Oeste 0 -- -- 38
2018-05-14 16:00:00 16.7 11 Sudoeste 22 Sudoeste 0 -- -- 41
2018-05-14 15:00:00 15.2 10 Sudoeste 20 Sudoeste 0 -- -- 48
2018-05-14 14:00:00 13.7 8 Sudoeste 17 Sudoeste 0 -- -- 43
2018-05-14 13:00:00 12.6 8 Sudoeste 15 Sudoeste 0 -- -- 47
2018-05-14 12:00:00 12.7 6 Sudoeste 17 Oeste 0 -- -- 48
2018-05-14 11:00:00 11.7 9 Sudoeste 17 Sudoeste 0 -- -- 51
2018-05-14 10:00:00 9.8 6 Sudoeste 12 Sudoeste 0 -- -- 57
2018-05-14 09:00:00 7.8 2 Nordeste 8 Oeste 0 -- -- 73
2018-05-14 08:00:00 5.3 3 Nordeste 7 Este 0 -- -- 80
2018-05-14 07:00:00 3 5 Este 8 Este 0 -- -- 89
2018-05-14 06:00:00 2.6 3 Nordeste 9 Este 0 -- -- 90
2018-05-14 05:00:00 2.3 5 Nordeste 9 Este 0 -- -- 91
2018-05-14 04:00:00 2.6 5 Sudeste 9 Nordeste 0 -- -- 88
2018-05-14 03:00:00 3.3 5 Este 10 Nordeste 0 -- -- 85
2018-05-14 02:00:00 4 4 Nordeste 9 Nordeste 0 -- -- 83
2018-05-14 01:00:00 5.5 3 Este 13 Sur 0 -- -- 74
2018-05-11 20:00:00 20 5 Sudoeste 13 Sudoeste 0 -- -- 59
2018-05-11 19:00:00 21.5 11 Sudoeste 22 Oeste 0 -- -- 49
2018-05-11 18:00:00 22 15 Sudoeste 26 Oeste 0 -- -- 46
2018-05-11 17:00:00 22.2 14 Oeste 25 Oeste 0 -- -- 49
2018-05-11 16:00:00 22 14 Sudoeste 28 Oeste 0 -- -- 49
2018-05-11 15:00:00 21.5 15 Oeste 23 Oeste 0 -- -- 51
2018-05-11 14:00:00 20.7 11 Oeste 19 Oeste 0 -- -- 48
2018-05-11 13:00:00 19.4 10 Oeste 18 Oeste 0 -- -- 49
2018-05-11 12:00:00 17.8 9 Oeste 17 Oeste 0 -- -- 59
2018-05-11 11:00:00 15.9 5 Noroeste 10 Noroeste 0 -- -- 65
2018-05-11 10:00:00 14.1 3 Oeste 6 Oeste 0 -- -- 78
2018-05-11 09:00:00 12.1 0 Calma 6 Nordeste 0 -- -- 84
2018-05-11 08:00:00 9 4 Este 8 Este 0 -- -- 95
2018-05-11 07:00:00 7.2 0 Calma 6 Este 0 -- -- 95
2018-05-11 06:00:00 7.9 3 Sudeste 7 Este 0 -- -- 95
2018-05-11 05:00:00 8.9 4 Nordeste 8 Nordeste 0 -- -- 93
2018-05-11 04:00:00 9.9 5 Nordeste 8 Este 0 -- -- 91
2018-05-11 03:00:00 10.9 3 Nordeste 6 Oeste 0 -- -- 88
2018-05-11 02:00:00 11.7 2 Nordeste 8 Este 0 -- -- 85
2018-05-11 01:00:00 12.4 2 Sudeste 12 Nordeste 0 -- -- 86
2018-05-11 00:00:00 12.4 5 Nordeste 15 Nordeste 0 -- -- 87
2018-05-10 23:00:00 12.7 9 Nordeste 14 Nordeste 0 -- -- 82
2018-05-10 22:00:00 14.1 6 Nordeste 18 Nordeste 0 -- -- 75
2018-05-10 21:00:00 15 9 Nordeste 24 Nordeste 0 -- -- 72
2018-05-10 20:00:00 15.1 12 Nordeste 33 Nordeste 0 -- -- 77
2018-05-10 19:00:00 17.9 11 Norte 23 Nordeste 0 -- -- 62
2018-05-10 18:00:00 19.7 8 Sudoeste 26 Oeste 0 -- -- 54
2018-05-10 17:00:00 20.1 15 Sudoeste 27 Sur 0 -- -- 58
2018-05-10 16:00:00 19.7 13 Sudoeste 28 Sudoeste 0 -- -- 62
2018-05-10 15:00:00 19.4 12 Sur 23 Sur 0 -- -- 66
2018-05-10 14:00:00 18.6 13 Oeste 22 Noroeste 0 -- -- 66
2018-05-10 13:00:00 17 12 Oeste 24 Sudoeste 0 -- -- 75
2018-05-10 12:00:00 16.2 15 Oeste 22 Oeste 0 -- -- 75
2018-05-10 11:00:00 16.1 15 Oeste 20 Oeste 0 -- -- 73
2018-05-10 10:00:00 15.6 4 Noroeste 8 Noroeste 0 -- -- 83
2018-05-10 09:00:00 13.1 2 Noroeste 6 Sudeste 0 -- -- 88
2018-05-10 08:00:00 11.2 2 Nordeste 9 Nordeste 0 -- -- 97
2018-05-10 07:00:00 11 2 Este 5 Este 0 -- -- 96
2018-05-10 06:00:00 11 2 Oeste 11 Nordeste 0 -- -- 95
2018-05-10 05:00:00 11.5 2 Nordeste 10 Este 0 -- -- 95
2018-05-10 04:00:00 12.4 4 Nordeste 9 Este 0 -- -- 93
2018-05-10 03:00:00 13 2 Sur 15 Nordeste 0 -- -- 93
2018-05-10 02:00:00 14.1 8 Este 12 Este 0 -- -- 94
2018-05-10 01:00:00 14.1 5 Nordeste 10 Nordeste 0 -- -- 93
2018-05-10 00:00:00 14.4 5 Nordeste 14 Nordeste 0 -- -- 94
2018-05-09 23:00:00 14.6 8 Nordeste 13 Nordeste 0 -- -- 93
2018-05-09 22:00:00 14.8 9 Este 17 Este 0 -- -- 90
2018-05-09 21:00:00 15.2 9 Nordeste 15 Nordeste 0.6 -- -- 91
2018-05-09 20:00:00 16.5 7 Nordeste 18 Nordeste 0 -- -- 81
2018-05-09 19:00:00 17.7 10 Nordeste 20 Este 0 -- -- 76
2018-05-09 18:00:00 20.4 11 Sudoeste 27 Sudoeste 0 -- -- 56
2018-05-09 17:00:00 21.4 12 Sudoeste 27 Oeste 0 -- -- 57
2018-05-09 16:00:00 20.8 12 Sudoeste 30 Oeste 0 -- -- 63
2018-05-09 15:00:00 19.7 19 Oeste 29 Oeste 0 -- -- 69
2018-05-09 14:00:00 18.5 19 Oeste 27 Oeste 0 -- -- 75
2018-05-09 13:00:00 17.3 19 Oeste 30 Oeste 0 -- -- 81
2018-05-09 12:00:00 16.8 21 Oeste 28 Oeste 0 -- -- 82
2018-05-09 11:00:00 16.5 12 Oeste 20 Oeste 0 -- -- 82
2018-05-09 10:00:00 14.9 6 Oeste 10 Oeste 0 -- -- 76
2018-05-09 09:00:00 12.7 4 Norte 5 Nordeste 0 -- -- 82
2018-05-09 08:00:00 10.1 2 Nordeste 8 Sur 0 -- -- 92
2018-05-09 07:00:00 8.7 0 Calma 8 Nordeste 0 -- -- 91
2018-05-09 06:00:00 9.6 5 Sudeste 10 Nordeste 0 -- -- 91
2018-05-09 05:00:00 10.1 3 Nordeste 9 Este 0 -- -- 90
2018-05-09 04:00:00 9.8 2 Sudeste 5 Sur 0 -- -- 92
2018-05-09 03:00:00 11.3 5 Nordeste 10 Sudeste 0 -- -- 86
2018-05-09 02:00:00 12.2 4 Sudeste 12 Nordeste 0 -- -- 86
2018-05-09 01:00:00 13.5 7 Nordeste 11 Nordeste 0 -- -- 85
2018-05-09 00:00:00 15.3 4 Este 13 Nordeste 0 -- -- 79
2018-05-08 23:00:00 15.5 5 Este 12 Nordeste 0 -- -- 89
2018-05-08 22:00:00 16.1 6 Sur 9 Sur 0 -- -- 85
2018-05-08 21:00:00 18.4 4 Sudeste 9 Sur 0 -- -- 78
2018-05-08 20:00:00 21.5 5 Oeste 14 Oeste 0 -- -- 67
2018-05-08 19:00:00 21.5 8 Oeste 14 Oeste 0 -- -- 58
2018-05-08 18:00:00 19.3 10 Sudoeste 17 Sudoeste 0 -- -- 74
2018-05-08 17:00:00 21.9 3 Sur 6 Sur 0 -- -- 60
2018-05-08 16:00:00 18.8 4 Noroeste 9 Este 0 -- -- 77
2018-05-08 15:00:00 17.5 6 Este 23 Nordeste 1.8 -- -- 87
2018-05-08 14:00:00 20.7 5 Noroeste 15 Oeste 0 -- -- 56
2018-05-08 13:00:00 19.3 8 Oeste 13 Sudoeste 0 -- -- 64
2018-05-08 12:00:00 17.2 3 Sudoeste 6 Sur 0 -- -- 74
2018-05-08 11:00:00 15.1 2 Nordeste 7 Este 0 -- -- 85
2018-05-08 10:00:00 14.3 3 Norte 8 Nordeste 0 -- -- 87
2018-05-08 09:00:00 11.9 5 Sur 10 Norte 0 -- -- 96
2018-05-08 08:00:00 10.7 4 Norte 9 Noroeste 0 -- -- 96
2018-05-08 07:00:00 10.8 4 Nordeste 15 Nordeste 0 -- -- 93
2018-05-08 06:00:00 11.8 11 Nordeste 25 Este 0 -- -- 90
2018-05-08 05:00:00 12.1 8 Este 17 Este 0.4 -- -- 95
2018-05-08 04:00:00 12.9 8 Este 18 Este 2.2 -- -- 88
2018-05-08 03:00:00 13.4 8 Este 21 Nordeste 0.8 -- -- 86
2018-05-08 02:00:00 13.5 3 Sudeste 18 Este 0.2 -- -- 91
2018-05-08 01:00:00 13.6 4 Este 8 Sudeste 0 -- -- 96
2018-05-08 00:00:00 13.7 3 Nordeste 8 Este 0 -- -- 97
2018-05-07 23:00:00 14.1 2 Este 6 Noroeste 0.4 -- -- 96
2018-05-07 22:00:00 14.6 5 Sur 13 Sur 1.8 -- -- 92
2018-05-07 21:00:00 15.3 10 Sur 14 Sur 2 -- -- 90
2018-05-07 20:00:00 17.3 4 Sudoeste 13 Sudoeste 0 -- -- 80
2018-05-07 19:00:00 18.8 6 Sudoeste 10 Sudoeste 0 -- -- 77
2018-05-07 18:00:00 17.5 4 Nordeste 12 Este 0.2 -- -- 82
2018-05-07 17:00:00 16.3 4 Sudeste 31 Sudeste 4 -- -- 90
2018-05-07 16:00:00 19.4 17 Sur 34 Sur 0.2 -- -- 70
2018-05-07 15:00:00 22 10 Oeste 23 Oeste 0 -- -- 59
2018-05-07 14:00:00 21.8 11 Oeste 19 Oeste 0 -- -- 54
2018-05-07 13:00:00 20.1 7 Oeste 14 Oeste 0 -- -- 63
2018-05-07 12:00:00 18.3 7 Oeste 12 Sudoeste 0 -- -- 77
2018-05-07 11:00:00 17.6 5 Oeste 8 Oeste 0 -- -- 76
2018-05-07 10:00:00 14.8 3 Oeste 8 Oeste 0 -- -- 89
2018-05-07 09:00:00 13.6 3 Sudoeste 6 Sudeste 0 -- -- 92
2018-05-07 08:00:00 12.6 0 Calma 6 Nordeste 0 -- -- 96
2018-05-07 07:00:00 12.1 3 Nordeste 5 Sudeste 0 -- -- 94
2018-05-07 06:00:00 12.9 0 Calma 5 Este 0 -- -- 93
2018-05-07 05:00:00 13.2 3 Sudeste 8 Este 0 -- -- 91
2018-05-07 04:00:00 13.3 0 Calma 4 Este 0 -- -- 91
2018-05-07 03:00:00 13.8 2 Nordeste 8 Sudeste 0 -- -- 88
2018-05-07 02:00:00 14 4 Este 8 Este 0 -- -- 90
2018-05-07 01:00:00 14.2 3 Este 9 Este 0 -- -- 89
2018-05-07 00:00:00 14.6 5 Este 9 Nordeste 0 -- -- 86
2018-05-06 23:00:00 14.4 2 Nordeste 9 Nordeste 0 -- -- 87
2018-05-06 22:00:00 15.8 4 Este 9 Este 0 -- -- 83
2018-05-06 21:00:00 17.7 0 Calma 6 Oeste 0 -- -- 75
2018-05-06 20:00:00 19.3 6 Sudoeste 12 Oeste 0 -- -- 63
2018-05-06 19:00:00 21 7 Oeste 17 Oeste 0 -- -- 55
2018-05-06 18:00:00 20.8 4 Sudoeste 13 Sudoeste 0 -- -- 64
2018-05-06 17:00:00 19.2 8 Sur 14 Sur 0.2 -- -- 67
2018-05-06 16:00:00 19.7 9 Sur 21 Sur 0.4 -- -- 65
2018-05-06 15:00:00 20.7 10 Sudoeste 24 Sudoeste 0 -- -- 58
2018-05-06 14:00:00 21 15 Sudoeste 26 Sudoeste 0 -- -- 60
2018-05-06 13:00:00 20.7 13 Oeste 24 Oeste 0 -- -- 61
2018-05-06 12:00:00 19.4 9 Oeste 14 Oeste 0 -- -- 61
2018-05-06 11:00:00 17.6 5 Oeste 10 Oeste 0 -- -- 67
2018-05-06 10:00:00 14.4 3 Norte 7 Oeste 0 -- -- 78
2018-05-06 09:00:00 11.9 4 Noroeste 6 Noroeste 0 -- -- 88
2018-05-06 08:00:00 9.3 3 Este 9 Este 0 -- -- 95
2018-05-06 07:00:00 7.4 0 Calma 8 Sudeste 0 -- -- 94
2018-05-06 06:00:00 8 4 Este 10 Este 0 -- -- 95
2018-05-06 05:00:00 8.6 5 Sudeste 7 Sudeste 0 -- -- 96
2018-05-06 04:00:00 8.9 5 Este 8 Este 0 -- -- 96
2018-05-06 03:00:00 9.1 4 Este 9 Sudeste 0 -- -- 93
2018-05-06 02:00:00 9.9 8 Este 13 Este 0 -- -- 92
2018-05-06 01:00:00 11 6 Este 10 Este 0 -- -- 90
2018-05-06 00:00:00 12.4 3 Sur 8 Nordeste 0 -- -- 86
2018-05-05 23:00:00 13.6 5 Nordeste 8 Nordeste 0 -- -- 82
2018-05-05 22:00:00 14.4 3 Nordeste 7 Este 0 -- -- 77
2018-05-05 21:00:00 14.8 2 Sur 5 Oeste 0 -- -- 84
2018-05-05 20:00:00 16.3 3 Sudoeste 11 Sudoeste 0 -- -- 76
2018-05-05 19:00:00 16.3 7 Sudoeste 11 Sudoeste 0 -- -- 76
2018-05-05 18:00:00 16.9 6 Oeste 14 Sudoeste 0 -- -- 74
2018-05-05 17:00:00 15.9 12 Oeste 18 Sudoeste 0 -- -- 79
2018-05-05 16:00:00 16.4 6 Noroeste 19 Este 0.6 -- -- 75
2018-05-05 15:00:00 15.8 13 Este 29 Sudeste 0.2 -- -- 73
2018-05-05 14:00:00 18 14 Oeste 25 Oeste 0 -- -- 63
2018-05-05 13:00:00 19.1 15 Oeste 21 Oeste 0 -- -- 59
2018-05-05 12:00:00 18.2 15 Oeste 24 Oeste 0 -- -- 60
2018-05-05 11:00:00 15.9 5 Oeste 9 Oeste 0 -- -- 66
2018-05-05 10:00:00 13.2 6 Oeste 10 Oeste 0 -- -- 74
2018-05-05 09:00:00 10.7 0 Calma 5 Norte 0 -- -- 84
2018-05-05 08:00:00 7.9 3 Norte 5 Oeste 0 -- -- 91
2018-05-05 07:00:00 5.9 0 Calma 8 Sudeste 0 -- -- 92
2018-05-05 06:00:00 6.6 2 Sudeste 6 Sudeste 0 -- -- 90
2018-05-05 05:00:00 6.9 4 Este 8 Sudeste 0 -- -- 92
2018-05-05 04:00:00 7.6 4 Sur 12 Sudeste 0 -- -- 91
2018-05-05 03:00:00 7.9 2 Sur 12 Sudeste 0 -- -- 90
2018-05-05 02:00:00 8.4 4 Nordeste 10 Este 0 -- -- 91
2018-05-05 01:00:00 8.7 2 Nordeste 10 Oeste 0 -- -- 90
2018-05-05 00:00:00 9.4 3 Sudeste 7 Oeste 0 -- -- 87
2018-05-04 23:00:00 10.9 3 Sur 6 Oeste 0 -- -- 83
2018-05-04 22:00:00 12.8 5 Sur 10 Sudoeste 0 -- -- 76
2018-05-04 21:00:00 15.1 8 Sudoeste 13 Oeste 0 -- -- 67
2018-05-04 20:00:00 18.6 9 Sudoeste 14 Oeste 0 -- -- 55
2018-05-04 19:00:00 19 9 Sudoeste 19 Sudoeste 0 -- -- 51
2018-05-04 18:00:00 19.6 10 Sudoeste 21 Sudoeste 0 -- -- 50
2018-05-04 17:00:00 18.6 14 Sudoeste 23 Oeste 0 -- -- 53
2018-05-04 16:00:00 20.5 16 Sudoeste 24 Sudoeste 0 -- -- 53
2018-05-04 15:00:00 20 17 Oeste 27 Oeste 0 -- -- 50
2018-05-04 14:00:00 19 15 Sudoeste 23 Oeste 0 -- -- 51
2018-05-04 13:00:00 16.9 12 Sudoeste 24 Oeste 0 -- -- 55
2018-05-04 12:00:00 17.5 10 Sudoeste 21 Oeste 0 -- -- 48
2018-05-04 11:00:00 14.5 10 Oeste 14 Oeste 0 -- -- 61
2018-05-04 10:00:00 9.6 3 Sudeste 12 Oeste 0 -- -- 81
2018-05-04 09:00:00 7.6 7 Oeste 12 Oeste 0 -- -- 87
2018-05-04 08:00:00 4.1 4 Sudeste 8 Sudeste 0 -- -- 95
2018-05-04 07:00:00 3.1 2 Sur 5 Sudeste 0 -- -- 91
2018-05-04 06:00:00 3.7 3 Este 5 Nordeste 0 -- -- 91
2018-05-04 05:00:00 4.4 2 Nordeste 8 Sudeste 0 -- -- 87
2018-05-04 04:00:00 5.3 3 Sudoeste 8 Este 0 -- -- 84
2018-05-04 03:00:00 5.5 5 Nordeste 10 Este 0 -- -- 85
2018-05-04 02:00:00 6.4 6 Este 10 Este 0 -- -- 81
2018-05-04 01:00:00 6.4 2 Noroeste 8 Oeste 0 -- -- 83
2018-05-04 00:00:00 8.2 4 Sudoeste 12 Este 0 -- -- 75
2018-05-03 23:00:00 12 6 Este 9 Este 0 -- -- 54
2018-05-03 22:00:00 11.3 4 Sudeste 8 Nordeste 0 -- -- 60
2018-05-03 21:00:00 12.4 3 Sur 12 Nordeste 0 -- -- 60
2018-05-03 20:00:00 16.6 9 Norte 28 Norte 0 -- -- 41
2018-05-03 19:00:00 17.7 15 Norte 33 Norte 0 -- -- 37
2018-05-03 18:00:00 18.4 14 Norte 28 Norte 0 -- -- 38
2018-05-03 17:00:00 18.3 8 Nordeste 23 Noroeste 0 -- -- 42
2018-05-03 16:00:00 18.1 12 Noroeste 25 Noroeste 0 -- -- 39
2018-05-03 15:00:00 18.1 13 Oeste 26 Oeste 0 -- -- 42
2018-05-03 14:00:00 17.2 12 Sudoeste 23 Oeste 0 -- -- 51
2018-05-03 13:00:00 15.2 12 Oeste 18 Oeste 0 -- -- 64
2018-05-03 12:00:00 12.7 3 Noroeste 10 Oeste 0 -- -- 69
2018-05-03 11:00:00 10 0 Calma 6 Este 0 -- -- 77
2018-05-03 10:00:00 8.1 4 Este 6 Nordeste 0 -- -- 89
2018-05-03 09:00:00 5.9 2 Noroeste 9 Sudoeste 0 -- -- 92
2018-05-03 08:00:00 5.3 4 Este 9 Nordeste 0 -- -- 90
2018-05-03 07:00:00 4.9 4 Sudeste 8 Sur 0 -- -- 91
2018-05-03 06:00:00 6 3 Sur 7 Este 0 -- -- 86
2018-05-03 05:00:00 7.3 4 Sudeste 6 Sur 0 -- -- 86
2018-05-03 04:00:00 7.6 2 Nordeste 6 Sur 0 -- -- 85
2018-05-03 03:00:00 7.5 8 Nordeste 12 Nordeste 0 -- -- 85
2018-05-03 02:00:00 8 2 Este 8 Sur 0 -- -- 85
2018-05-03 01:00:00 8.1 2 Este 9 Este 0 -- -- 82
2018-05-03 00:00:00 9.3 5 Este 8 Este 0 -- -- 69
2018-05-02 23:00:00 9.8 0 Calma 17 Sur 0 -- -- 72
2018-05-02 22:00:00 9.5 4 Sur 9 Sur 0 -- -- 72
2018-05-02 21:00:00 12.8 5 Sudeste 8 Sudeste 0 -- -- 64
2018-05-02 20:00:00 14.5 8 Sudoeste 30 Sur 0 -- -- 54
2018-05-02 19:00:00 15.5 15 Sur 31 Sur 0 -- -- 48
2018-05-02 18:00:00 15.7 17 Sudoeste 40 Sudoeste 0 -- -- 46
2018-05-02 17:00:00 17.3 19 Sudoeste 37 Sudoeste 0 -- -- 40
2018-05-02 16:00:00 17.6 18 Sudoeste 33 Sudoeste 0 -- -- 41
2018-05-02 15:00:00 17.1 13 Sudoeste 30 Sudoeste 0 -- -- 39
2018-05-02 14:00:00 15.8 15 Sudoeste 32 Sudoeste 0 -- -- 45
2018-05-02 13:00:00 14.3 17 Sudoeste 27 Sudoeste 0 -- -- 55
2018-05-02 12:00:00 12.7 10 Oeste 17 Sudoeste 0 -- -- 55
2018-05-02 11:00:00 10.1 7 Oeste 12 Oeste 0 -- -- 57
2018-05-02 10:00:00 7.4 3 Noroeste 10 Nordeste 0 -- -- 75
2018-05-02 09:00:00 4.2 3 Nordeste 6 Sudeste 0 -- -- 86
2018-05-02 08:00:00 1.5 5 Este 9 Nordeste 0 -- -- 95
2018-05-02 07:00:00 0.1 4 Este 7 Este 0 -- -- 96
2018-05-02 06:00:00 0.7 5 Este 9 Este 0 -- -- 98
2018-05-02 05:00:00 0.4 2 Este 8 Este 0 -- -- 96
2018-05-02 04:00:00 1.6 6 Este 9 Este 0 -- -- 97
2018-05-02 03:00:00 1.7 5 Este 8 Este 0 -- -- 96
2018-05-02 02:00:00 2.1 2 Sur 6 Sudeste 0 -- -- 94
2018-05-02 01:00:00 3.3 3 Este 8 Este 0 -- -- 96
2018-05-02 00:00:00 3.8 3 Este 10 Este 0 -- -- 96
2018-05-01 23:00:00 3.7 3 Este 9 Nordeste 0 -- -- 96
2018-05-01 22:00:00 4.7 4 Sudeste 8 Sur 0 -- -- 92
2018-05-01 21:00:00 7.5 3 Sur 9 Sudoeste 0 -- -- 89
2018-05-01 20:00:00 9 4 Sudoeste 6 Oeste 0 -- -- 90
2018-05-01 19:00:00 8.6 3 Nordeste 10 Este 0 -- -- 85
2018-05-01 18:00:00 7.9 8 Nordeste 20 Nordeste 0 -- -- 85
2018-05-01 17:00:00 6.8 5 Sudeste 27 Este 1.8 -- -- 82
2018-05-01 16:00:00 6.3 11 Sudeste 21 Sudeste 7.8 -- -- 77
2018-05-01 15:00:00 10.5 5 Sudeste 25 Sudoeste 0.4 -- -- 64
2018-05-01 14:00:00 12.7 14 Sudoeste 30 Sudoeste 0 -- -- 59
2018-05-01 13:00:00 13.7 15 Sudoeste 26 Oeste 0 -- -- 51
2018-05-01 12:00:00 12.5 8 Sudoeste 16 Sur 0 -- -- 48
2018-05-01 11:00:00 10.3 9 Oeste 15 Oeste 0 -- -- 67
2018-05-01 10:00:00 7.9 5 Noroeste 9 Oeste 0 -- -- 76
2018-05-01 09:00:00 5.6 0 Calma 6 Nordeste 0 -- -- 82
2018-05-01 08:00:00 2.2 3 Nordeste 6 Este 0 -- -- 94
2018-05-01 07:00:00 1.2 5 Este 9 Este 0 -- -- 96
2018-05-01 06:00:00 0.6 2 Sudeste 8 Sur 0 -- -- 95
2018-05-01 05:00:00 1.2 0 Calma 8 Sudeste 0 -- -- 93
2018-05-01 04:00:00 2.7 5 Este 9 Este 0 -- -- 92
2018-05-01 03:00:00 1.9 3 Nordeste 5 Nordeste 0 -- -- 93
2018-05-01 02:00:00 2.9 0 Calma 6 Este 0 -- -- 89
2018-05-01 01:00:00 3.4 0 Calma 9 Sur 0 -- -- 88
2018-05-01 00:00:00 4.2 3 Sudoeste 9 Sur 0 -- -- 85
2018-04-30 23:00:00 6.3 8 Sur 14 Oeste 0 -- -- 77
2018-04-30 22:00:00 7.3 7 Sudoeste 12 Sur 0 -- -- 73
2018-04-30 21:00:00 8.1 8 Sur 13 Oeste 0 -- -- 72
2018-04-30 20:00:00 11.9 10 Noroeste 18 Noroeste 0 -- -- 54
2018-04-30 19:00:00 12 8 Noroeste 27 Oeste 0 -- -- 59
2018-04-30 18:00:00 12.9 12 Sudoeste 24 Oeste 0 -- -- 50
2018-04-30 17:00:00 12.3 10 Oeste 27 Oeste 0 -- -- 54
2018-04-30 16:00:00 12.7 16 Sudoeste 28 Oeste 0 -- -- 52
2018-04-30 15:00:00 11.9 15 Sudoeste 29 Sudoeste 0 -- -- 57
2018-04-30 14:00:00 11.2 15 Sudoeste 25 Sudoeste 0 -- -- 61
2018-04-30 13:00:00 10.8 13 Sudoeste 19 Sur 0 -- -- 59
2018-04-30 12:00:00 9.8 7 Oeste 18 Sudoeste 0 -- -- 71
2018-04-30 11:00:00 9 9 Sudoeste 17 Oeste 0 -- -- 75
2018-04-30 10:00:00 6.1 5 Oeste 13 Oeste 0 -- -- 98
2018-04-30 09:00:00 4.3 5 Oeste 7 Oeste 0 -- -- 99
2018-04-30 08:00:00 2.7 2 Nordeste 7 Este 0 -- -- 99
2018-04-30 07:00:00 2.3 3 Nordeste 6 Sudeste 0 -- -- 98
2018-04-30 06:00:00 3.1 3 Oeste 4 Nordeste 0 -- -- 97
2018-04-30 05:00:00 4.7 4 Sudeste 8 Sudeste 0 -- -- 98
2018-04-30 04:00:00 4.7 6 Sudeste 8 Sudeste 0 -- -- 97
2018-04-30 03:00:00 5.1 3 Sudeste 8 Sur 0 -- -- 97
2018-04-30 02:00:00 5.9 3 Sudeste 8 Sudeste 0 -- -- 94
2018-04-30 01:00:00 6 3 Noroeste 8 Sur 0 -- -- 97
2018-04-30 00:00:00 6.4 3 Sudoeste 7 Sur 0 -- -- 91
2018-04-29 23:00:00 7 0 Calma 9 Noroeste 0 -- -- 96
2018-04-29 22:00:00 7.4 4 Sudoeste 9 Sur 0 -- -- 89
2018-04-29 21:00:00 8.2 3 Sudeste 9 Noroeste 0 -- -- 89
2018-04-29 20:00:00 8.7 6 Noroeste 12 Oeste 0 -- -- 88
2018-04-29 19:00:00 8.6 11 Sudoeste 26 Sur 0 -- -- 85
2018-04-29 18:00:00 9.1 10 Sudoeste 16 Sur 0 -- -- 84
2018-04-29 17:00:00 9.1 3 Sudoeste 15 Oeste 0 -- -- 79
2018-04-29 16:00:00 8.4 12 Oeste 17 Oeste 0.6 -- -- 86
2018-04-29 15:00:00 8.4 10 Norte 18 Norte 0.4 -- -- 85
2018-04-29 14:00:00 6.7 21 Sur 50 Sur 3 -- -- 88
2018-04-29 13:00:00 11.6 6 Sudeste 21 Este 0 -- -- 71
2018-04-29 12:00:00 9.6 10 Este 19 Este 0 -- -- 85
2018-04-29 11:00:00 9.2 8 Nordeste 15 Este 0.2 -- -- 92
2018-04-29 10:00:00 8.8 4 Sudeste 18 Noroeste 1 -- -- 94
2018-04-29 09:00:00 8.5 2 Noroeste 8 Nordeste 0.2 -- -- 97
2018-04-29 08:00:00 8.3 4 Nordeste 16 Nordeste 0 -- -- 97
2018-04-29 07:00:00 8.2 7 Nordeste 12 Nordeste 2.6 -- -- 96
2018-04-29 06:00:00 9 5 Sur 32 Oeste 17.6 -- -- 95
2018-04-29 05:00:00 12 10 Sudeste 26 Sudoeste 5.6 -- -- 91
2018-04-29 04:00:00 13 12 Sudeste 29 Este 0.8 -- -- 86
2018-04-29 03:00:00 13.2 9 Sudeste 24 Sudeste 3.8 -- -- 90
2018-04-29 02:00:00 13.5 12 Este 33 Sudeste 0.4 -- -- 85
2018-04-29 01:00:00 13.8 3 Nordeste 10 Este 0.8 -- -- 86
2018-04-29 00:00:00 15.4 8 Este 31 Este 0 -- -- 72
2018-04-28 23:00:00 15.2 15 Este 35 Sudeste 0 -- -- 74
2018-04-28 22:00:00 15.8 16 Sudeste 52 Este 0 -- -- 76
2018-04-28 21:00:00 16.9 16 Este 39 Sudeste 0 -- -- 65
2018-04-28 20:00:00 18.3 17 Este 38 Este 0 -- -- 57
2018-04-28 19:00:00 19.5 12 Sudeste 36 Este 0 -- -- 51
2018-04-28 18:00:00 20.4 22 Este 43 Este 0 -- -- 53
2018-04-28 17:00:00 19.5 15 Este 27 Este 0 -- -- 58
2018-04-28 16:00:00 20.3 13 Nordeste 23 Este 0 -- -- 55
2018-04-28 15:00:00 18.8 13 Nordeste 25 Este 0 -- -- 60
2018-04-28 14:00:00 18.7 9 Este 20 Este 0 -- -- 64
2018-04-28 13:00:00 17.3 10 Este 21 Este 0 -- -- 71
2018-04-28 12:00:00 15.9 6 Sudoeste 19 Este 0 -- -- 76
2018-04-28 11:00:00 15.1 7 Este 21 Este 0 -- -- 78
2018-04-28 10:00:00 14 6 Nordeste 15 Nordeste 0 -- -- 86
2018-04-28 09:00:00 13.5 7 Este 16 Este 0 -- -- 87
2018-04-28 08:00:00 13.6 3 Este 19 Este 0 -- -- 83
2018-04-28 07:00:00 13.5 7 Sudeste 17 Sudeste 0 -- -- 81
2018-04-28 06:00:00 13.5 4 Oeste 9 Oeste 0 -- -- 87
2018-04-28 05:00:00 13.9 3 Noroeste 18 Nordeste 0 -- -- 83
2018-04-28 04:00:00 14.1 8 Nordeste 16 Este 0 -- -- 81
2018-04-28 03:00:00 14.3 9 Este 20 Este 0 -- -- 82
2018-04-28 02:00:00 14.4 10 Este 15 Nordeste 0 -- -- 85
2018-04-28 01:00:00 13.6 2 Nordeste 9 Norte 0 -- -- 93
2018-04-28 00:00:00 13.5 8 Nordeste 17 Este 0 -- -- 88
2018-04-27 23:00:00 14.7 4 Este 10 Sudoeste 1 -- -- 90
2018-04-27 22:00:00 15 9 Sudoeste 27 Sudoeste 0.4 -- -- 89
2018-04-27 21:00:00 19.1 14 Sur 25 Sur 0 -- -- 64
2018-04-27 20:00:00 20.6 17 Sur 30 Sur 0 -- -- 59
2018-04-27 19:00:00 21.7 17 Sur 26 Sudoeste 0 -- -- 45
2018-04-27 18:00:00 23.3 16 Sudoeste 31 Sudoeste 0 -- -- 41
2018-04-27 17:00:00 23.3 15 Sudoeste 27 Oeste 0 -- -- 43
2018-04-27 16:00:00 23.3 17 Sudoeste 29 Sudoeste 0 -- -- 50
2018-04-27 15:00:00 22.8 17 Oeste 25 Oeste 0 -- -- 56
2018-04-27 14:00:00 21.6 18 Oeste 27 Oeste 0 -- -- 57
2018-04-27 13:00:00 20.6 18 Oeste 28 Oeste 0 -- -- 58
2018-04-27 12:00:00 19.9 10 Oeste 16 Oeste 0 -- -- 65
2018-04-27 11:00:00 17.6 10 Sudoeste 13 Oeste 0 -- -- 67
2018-04-27 10:00:00 15.8 2 Nordeste 10 Nordeste 0 -- -- 75
2018-04-27 09:00:00 12.3 2 Sudoeste 5 Sur 0 -- -- 86
2018-04-27 08:00:00 9 0 Calma 7 Oeste 0 -- -- 96
2018-04-27 07:00:00 8 0 Calma 10 Sudeste 0 -- -- 93
2018-04-27 06:00:00 9.1 7 Sudeste 11 Sudeste 0 -- -- 93
2018-04-27 05:00:00 9.5 4 Sudeste 8 Este 0 -- -- 90
2018-04-27 04:00:00 9.5 3 Nordeste 8 Este 0 -- -- 91
2018-04-27 03:00:00 9.7 5 Este 7 Este 0 -- -- 92
2018-04-27 02:00:00 11.7 7 Nordeste 12 Nordeste 0 -- -- 85
2018-04-27 01:00:00 12.2 5 Este 10 Este 0 -- -- 84
2018-04-27 00:00:00 13.2 4 Este 10 Nordeste 0 -- -- 81
2018-04-26 23:00:00 12.8 3 Norte 9 Nordeste 0 -- -- 80
2018-04-26 22:00:00 15 3 Nordeste 11 Sudoeste 0 -- -- 75
2018-04-26 21:00:00 17.3 9 Sudoeste 16 Sur 0 -- -- 65
2018-04-26 20:00:00 19.6 12 Oeste 20 Oeste 0 -- -- 62
2018-04-26 19:00:00 20.8 14 Sudoeste 25 Sudoeste 0 -- -- 58
2018-04-26 18:00:00 21.4 13 Sudoeste 23 Sudoeste 0 -- -- 58
2018-04-26 17:00:00 21.1 13 Oeste 26 Oeste 0 -- -- 59
2018-04-26 16:00:00 20.5 17 Oeste 31 Oeste 0 -- -- 65
2018-04-26 15:00:00 19.7 18 Oeste 32 Oeste 0 -- -- 67
2018-04-26 14:00:00 19.7 16 Oeste 29 Oeste 0 -- -- 64
2018-04-26 13:00:00 18.8 16 Oeste 24 Oeste 0 -- -- 67
2018-04-26 12:00:00 18 14 Oeste 20 Oeste 0 -- -- 69
2018-04-26 11:00:00 16.4 5 Oeste 10 Oeste 0 -- -- 74
2018-04-26 10:00:00 14.7 2 Noroeste 6 Oeste 0 -- -- 81
2018-04-26 09:00:00 12.3 2 Nordeste 8 Nordeste 0 -- -- 84
2018-04-26 08:00:00 10.3 3 Este 7 Sudeste 0 -- -- 91
2018-04-26 07:00:00 9.2 3 Nordeste 7 Nordeste 0 -- -- 89
2018-04-26 06:00:00 10.6 3 Este 8 Este 0 -- -- 85
2018-04-26 05:00:00 10 0 Calma 7 Sudeste 0 -- -- 88
2018-04-26 04:00:00 12.1 3 Este 8 Este 0 -- -- 83
2018-04-26 03:00:00 12.4 5 Este 8 Este 0 -- -- 85
2018-04-26 02:00:00 13.7 2 Este 7 Este 0 -- -- 82
2018-04-26 01:00:00 14.7 6 Este 9 Este 0 -- -- 78
2018-04-26 00:00:00 15.8 6 Este 12 Este 0 -- -- 77
2018-04-25 23:00:00 16.4 9 Nordeste 15 Nordeste 0 -- -- 74
2018-04-25 22:00:00 17.8 6 Nordeste 12 Nordeste 0 -- -- 62
2018-04-25 21:00:00 17.4 4 Nordeste 16 Nordeste 0 -- -- 71
2018-04-25 20:00:00 20.2 8 Este 23 Nordeste 0 -- -- 54
2018-04-25 19:00:00 22.7 6 Oeste 21 Oeste 0 -- -- 54
2018-04-25 18:00:00 23.3 10 Sudoeste 28 Sudoeste 0 -- -- 51
2018-04-25 17:00:00 25.2 14 Sudoeste 30 Oeste 0 -- -- 51
2018-04-25 16:00:00 25.2 18 Oeste 34 Oeste 0 -- -- 49
2018-04-25 15:00:00 25.9 15 Oeste 24 Oeste 0 -- -- 43
2018-04-25 14:00:00 25.3 6 Oeste 17 Oeste 0 -- -- 40
2018-04-25 13:00:00 24.4 6 Oeste 13 Noroeste 0 -- -- 48
2018-04-25 12:00:00 22.2 6 Oeste 9 Oeste 0 -- -- 52
2018-04-25 11:00:00 19.8 4 Oeste 6 Noroeste 0 -- -- 67
2018-04-25 10:00:00 16.5 3 Norte 6 Norte 0 -- -- 74
2018-04-25 09:00:00 13.1 2 Norte 6 Noroeste 0 -- -- 86
2018-04-25 08:00:00 10 0 Calma 8 Sur 0 -- -- 93
2018-04-25 07:00:00 9.9 6 Sudeste 9 Sudeste 0 -- -- 91
2018-04-25 06:00:00 10.6 6 Sudeste 8 Sudeste 0 -- -- 88
2018-04-25 05:00:00 11 4 Este 10 Este 0 -- -- 87
2018-04-25 04:00:00 11 2 Este 9 Nordeste 0 -- -- 84
2018-04-25 03:00:00 11.6 3 Nordeste 10 Este 0 -- -- 84
2018-04-25 02:00:00 11.4 4 Este 7 Sudeste 0 -- -- 84
2018-04-25 01:00:00 11.7 3 Este 9 Nordeste 0 -- -- 84
2018-04-25 00:00:00 13.4 3 Este 11 Nordeste 0 -- -- 78
2018-04-24 23:00:00 14 6 Este 9 Este 0 -- -- 76
2018-04-24 22:00:00 14.6 7 Sur 9 Sur 0 -- -- 75
2018-04-24 21:00:00 18.4 7 Sudoeste 17 Oeste 0 -- -- 60
2018-04-24 20:00:00 20.8 13 Sudoeste 18 Oeste 0 -- -- 55
2018-04-24 19:00:00 23.1 13 Oeste 21 Oeste 0 -- -- 52
2018-04-24 18:00:00 23.8 13 Oeste 24 Oeste 0 -- -- 53
2018-04-24 17:00:00 24.1 15 Oeste 24 Oeste 0 -- -- 53
2018-04-24 16:00:00 24.6 5 Oeste 16 Oeste 0 -- -- 42
2018-04-24 15:00:00 23.7 5 Oeste 12 Oeste 0 -- -- 44
2018-04-24 14:00:00 22.8 3 Noroeste 12 Oeste 0 -- -- 49
2018-04-24 13:00:00 21.4 5 Oeste 10 Oeste 0 -- -- 54
2018-04-24 12:00:00 19.5 4 Oeste 10 Oeste 0 -- -- 61
2018-04-24 11:00:00 16.8 6 Sudoeste 11 Oeste 0 -- -- 71
2018-04-24 10:00:00 14.4 5 Oeste 8 Oeste 0 -- -- 81
2018-04-24 09:00:00 11.4 3 Nordeste 9 Este 0 -- -- 85
2018-04-24 08:00:00 8.4 5 Sudeste 10 Nordeste 0 -- -- 93
2018-04-24 07:00:00 7.8 6 Este 10 Este 0 -- -- 94
2018-04-24 06:00:00 8 5 Sudeste 9 Sudeste 0 -- -- 97
2018-04-24 05:00:00 7.4 3 Nordeste 7 Nordeste 0 -- -- 96
2018-04-24 04:00:00 7.5 3 Sudeste 8 Este 0 -- -- 93
2018-04-24 03:00:00 9.7 5 Este 11 Este 0 -- -- 91
2018-04-24 02:00:00 9.2 6 Este 9 Este 0 -- -- 94
2018-04-24 01:00:00 10.5 4 Nordeste 8 Este 0 -- -- 89
2018-04-24 00:00:00 10.3 3 Este 8 Este 0 -- -- 95
2018-04-23 23:00:00 11.9 2 Este 13 Nordeste 0 -- -- 85
2018-04-23 22:00:00 12.7 7 Nordeste 15 Nordeste 0 -- -- 87
2018-04-23 21:00:00 13.8 12 Nordeste 17 Nordeste 0 -- -- 84
2018-04-23 20:00:00 14.3 5 Este 20 Norte 0 -- -- 83
2018-04-23 19:00:00 14.9 6 Nordeste 12 Este 0 -- -- 85
2018-04-23 18:00:00 15.1 5 Oeste 15 Sur 0 -- -- 84
2018-04-23 17:00:00 15.2 12 Sudoeste 20 Sudoeste 0 -- -- 79
2018-04-23 16:00:00 15.8 8 Sudoeste 19 Sudoeste 0.2 -- -- 79
2018-04-23 15:00:00 16.7 5 Sur 12 Sudeste 0.2 -- -- 76
2018-04-23 14:00:00 15.7 9 Sur 17 Sur 0 -- -- 79
2018-04-23 13:00:00 16.2 8 Sudoeste 13 Sudoeste 0 -- -- 73
2018-04-23 12:00:00 16.2 4 Sudoeste 10 Sudoeste 0 -- -- 73
2018-04-23 11:00:00 14.8 6 Sudoeste 13 Sudoeste 0 -- -- 81
2018-04-23 10:00:00 14.1 2 Oeste 8 Este 0 -- -- 81
2018-04-23 09:00:00 12.2 3 Nordeste 13 Sur 0 -- -- 88
2018-04-23 08:00:00 10.7 8 Sudoeste 13 Sur 0 -- -- 90
2018-04-23 07:00:00 10.3 3 Este 15 Este 0 -- -- 88
2018-04-23 06:00:00 10.5 4 Este 10 Nordeste 0 -- -- 88
2018-04-23 05:00:00 9.5 2 Este 8 Sur 0 -- -- 90
2018-04-23 04:00:00 10.3 2 Sudeste 8 Este 0 -- -- 87
2018-04-23 03:00:00 12.1 7 Este 12 Este 0 -- -- 82
2018-04-23 02:00:00 12.4 0 Calma 12 Este 0 -- -- 80
2018-04-23 01:00:00 12.9 5 Nordeste 15 Nordeste 0 -- -- 80
2018-04-23 00:00:00 12.8 4 Nordeste 7 Nordeste 0 -- -- 80
2018-04-22 23:00:00 15.1 6 Sudeste 9 Sudeste 0 -- -- 72
2018-04-22 22:00:00 15.8 5 Sur 19 Sudoeste 0 -- -- 71
2018-04-22 21:00:00 16.8 4 Sur 10 Oeste 0 -- -- 67
2018-04-22 20:00:00 17.5 10 Oeste 16 Sudoeste 0 -- -- 64
2018-04-22 19:00:00 21.6 7 Oeste 17 Oeste 0 -- -- 52
2018-04-22 18:00:00 20 9 Oeste 18 Sur 0 -- -- 61
2018-04-22 17:00:00 21.6 5 Norte 25 Sudoeste 0 -- -- 52
2018-04-22 16:00:00 20.2 20 Sudoeste 28 Sudoeste 0 -- -- 61
2018-04-22 15:00:00 22.3 6 Oeste 12 Oeste 0 -- -- 49
2018-04-22 14:00:00 21.8 3 Oeste 12 Oeste 0 -- -- 46
2018-04-22 13:00:00 20.5 5 Oeste 13 Oeste 0 -- -- 48
2018-04-22 12:00:00 18.8 5 Oeste 8 Oeste 0 -- -- 51
2018-04-22 11:00:00 16.3 2 Norte 8 Oeste 0 -- -- 65
2018-04-22 10:00:00 13 4 Oeste 8 Oeste 0 -- -- 79
2018-04-22 09:00:00 11.5 3 Oeste 6 Sur 0 -- -- 87
2018-04-22 08:00:00 9.5 0 Calma 8 Sudeste 0 -- -- 88
2018-04-22 07:00:00 9.3 3 Sudeste 9 Este 0 -- -- 86
2018-04-22 06:00:00 9.2 5 Este 8 Este 0 -- -- 86
2018-04-22 05:00:00 10 0 Calma 9 Nordeste 0 -- -- 83
2018-04-22 04:00:00 9.9 6 Este 8 Nordeste 0 -- -- 83
2018-04-22 03:00:00 10.5 3 Este 10 Este 0 -- -- 83
2018-04-22 02:00:00 11.3 4 Este 9 Nordeste 0 -- -- 78
2018-04-22 01:00:00 11.9 5 Nordeste 9 Nordeste 0 -- -- 79
2018-04-22 00:00:00 13.3 4 Nordeste 9 Este 0 -- -- 75